Saint Aubin/Jersey Island, United Kingdom
Current Conditions -  °F | °C
As of 8:50 PM on Monday 20 Oct 2014 (Local Time) from EGJB Reporting Station
Few Clouds Few Clouds  
Wind Chill: 57°   Ceiling: Unl
Heat Index: 57°   Visibility: 6mi
Dew Point: 54°   Wind: 16mph
Humidity: 88%   Direction: 250°WSW
Pressure: 30.06"   Gusts: NA
Location:  49.25°N, 2.75°W
Report Text: EGJB 201950Z 25014KT 9999 FEW017 14/12 Q1018
Loading
Personal Weather Stations






























Interactive Weather Map
Tropical Storm Tracking
New forecast layout! Learn more

10-Day Weather Forecast

Advertisements
Track Severe Weather on mobile